Terminal Aerodrome Forecast
Issued by NWS

Current Version | Previous Version | Text Only | Print | Product List | Glossary On
Versions: 1 2 3 4 5 6 7 8 9 10 11 12 13
980
FTUS45 KFGZ 161130
TAFSEZ
TAF
KSEZ 161130Z 1612/1712 04011KT P6SM FEW150 OVC200
     FM161500 VRB05KT P6SM SCT150 BKN200
     FM170100 06010KT P6SM BKN120 OVC150
     FM170600 05012KT P6SM SCT070 OVC120=

USA.gov is the U.S. government's official web portal to all federal, state and local government web resources and services.